Time;durP1;ratioP1;P1;durP2;ratioP2;P2;SDS_P1;SDS_P2;PMS_P1;PMS_P2;Temp;Humidity;BMP_temperature;BMP_pressure;BME280_temperature;BME280_humidity;BME280_pressure;Samples;Min_cycle;Max_cycle;Signal;HPM_P1;HPM_P2
2023/05/10 00:02:40;;;;;;;0.45;0.28;;;;;;;;;;6187473;28;20047;-76
2023/05/10 00:05:42;;;;;;;0.30;0.30;;;;;;;;;;6202124;28;20039;-77
2023/05/10 00:08:45;;;;;;;0.73;0.30;;;;;;;;;;6199816;28;20103;-76
2023/05/10 00:11:46;;;;;;;0.40;0.40;;;;;;;;;;6204333;28;20038;-76
2023/05/10 00:14:48;;;;;;;0.60;0.43;;;;;;;;;;6204447;28;20045;-77
2023/05/10 00:17:49;;;;;;;4.30;0.43;;;;;;;;;;6183947;28;20050;-76
2023/05/10 00:20:51;;;;;;;0.30;0.30;;;;;;;;;;6200709;28;20049;-77
2023/05/10 00:23:53;;;;;;;0.30;0.30;;;;;;;;;;6195604;28;20042;-77
2023/05/10 00:26:54;;;;;;;0.55;0.22;;;;;;;;;;6200295;28;20417;-77
2023/05/10 00:29:56;;;;;;;0.52;0.40;;;;;;;;;;6195608;28;20415;-77
2023/05/10 00:32:57;;;;;;;0.40;0.30;;;;;;;;;;6183511;28;20065;-77
2023/05/10 00:36:00;;;;;;;0.60;0.40;;;;;;;;;;6207395;28;20066;-77
2023/05/10 00:39:03;;;;;;;0.70;0.47;;;;;;;;;;6196693;28;21335;-76
2023/05/10 00:42:05;;;;;;;2.13;0.52;;;;;;;;;;6198166;28;20120;-76
2023/05/10 00:45:07;;;;;;;0.40;0.40;;;;;;;;;;6176787;28;20046;-77
2023/05/10 00:48:09;;;;;;;0.40;0.27;;;;;;;;;;6197076;28;20508;-77
2023/05/10 00:51:11;;;;;;;0.60;0.35;;;;;;;;;;6200775;28;20444;-77
2023/05/10 00:54:15;;;;;;;1.00;0.30;;;;;;;;;;6201665;28;20051;-77
2023/05/10 00:57:16;;;;;;;0.93;0.30;;;;;;;;;;6206755;28;20046;-77
2023/05/10 01:00:18;;;;;;;0.30;0.30;;;;;;;;;;6191535;28;20047;-77
2023/05/10 01:03:20;;;;;;;1.00;0.30;;;;;;;;;;6183887;28;20417;-77
2023/05/10 01:06:22;;;;;;;0.40;0.30;;;;;;;;;;6179297;28;20572;-77
2023/05/10 01:09:26;;;;;;;0.80;0.73;;;;;;;;;;6207512;28;20053;-77
2023/05/10 01:12:28;;;;;;;0.32;0.30;;;;;;;;;;6193572;28;20054;-76
2023/05/10 01:15:30;;;;;;;0.38;0.30;;;;;;;;;;6199947;28;20393;-77
2023/05/10 01:18:39;;;;;;;1.48;0.50;;;;;;;;;;6173037;28;20050;-76
2023/05/10 01:21:44;;;;;;;0.50;0.43;;;;;;;;;;6196441;28;20538;-77
2023/05/10 01:25:11;;;;;;;1.55;0.40;;;;;;;;;;6199274;28;20053;-76
2023/05/10 01:28:55;;;;;;;0.93;0.70;;;;;;;;;;6197488;28;20038;-76
2023/05/10 01:32:15;;;;;;;2.13;1.08;;;;;;;;;;6169895;28;20054;-76
2023/05/10 01:35:42;;;;;;;1.52;1.02;;;;;;;;;;6200296;28;21237;-77
2023/05/10 01:39:01;;;;;;;2.00;1.13;;;;;;;;;;6202703;28;20046;-76
2023/05/10 01:42:10;;;;;;;0.93;0.82;;;;;;;;;;6201910;28;20041;-77
2023/05/10 01:45:22;;;;;;;1.10;0.70;;;;;;;;;;6207743;28;20053;-77
2023/05/10 01:48:27;;;;;;;1.52;0.70;;;;;;;;;;6202671;28;20107;-76
2023/05/10 01:51:38;;;;;;;0.75;0.52;;;;;;;;;;6192169;28;20038;-76
2023/05/10 01:54:44;;;;;;;1.88;0.47;;;;;;;;;;6206802;28;20042;-77
2023/05/10 01:57:50;;;;;;;1.17;0.65;;;;;;;;;;6182465;28;20623;-77
2023/05/10 02:00:53;;;;;;;0.47;0.47;;;;;;;;;;6188180;28;20103;-77
2023/05/10 02:03:56;;;;;;;0.50;0.50;;;;;;;;;;6200305;28;20054;-77
2023/05/10 02:06:58;;;;;;;1.00;0.40;;;;;;;;;;6208073;28;20050;-77
2023/05/10 02:10:02;;;;;;;0.50;0.45;;;;;;;;;;6207784;28;20054;-77
2023/05/10 02:13:06;;;;;;;2.17;0.60;;;;;;;;;;6201482;28;20038;-77
2023/05/10 02:16:08;;;;;;;0.93;0.50;;;;;;;;;;6183432;28;20058;-76
2023/05/10 02:19:12;;;;;;;0.47;0.45;;;;;;;;;;6205713;28;20073;-77
2023/05/10 02:22:15;;;;;;;0.60;0.50;;;;;;;;;;6206137;28;20415;-76
2023/05/10 02:25:17;;;;;;;;;;;;;;;;;;6205002;28;20049;-77
2023/05/10 02:28:21;;;;;;;1.40;0.47;;;;;;;;;;6198362;28;20453;-76
2023/05/10 02:31:23;;;;;;;1.35;0.40;;;;;;;;;;6206780;28;20104;-77
2023/05/10 02:34:27;;;;;;;0.60;0.40;;;;;;;;;;6201195;28;20066;-77
2023/05/10 02:37:30;;;;;;;1.00;0.80;;;;;;;;;;6209849;28;20516;-77
2023/05/10 02:40:33;;;;;;;1.25;0.55;;;;;;;;;;6198667;28;20057;-76
2023/05/10 02:43:35;;;;;;;1.05;0.60;;;;;;;;;;6202777;28;20049;-76
2023/05/10 02:46:37;;;;;;;0.90;0.77;;;;;;;;;;6202343;28;20061;-77
2023/05/10 02:49:39;;;;;;;0.80;0.80;;;;;;;;;;6207110;28;20461;-77
2023/05/10 02:52:46;;;;;;;1.45;0.80;;;;;;;;;;6202528;28;20432;-75
2023/05/10 02:55:54;;;;;;;0.60;0.60;;;;;;;;;;6197989;28;20054;-76
2023/05/10 02:58:56;;;;;;;0.52;0.50;;;;;;;;;;6216691;28;20046;-77
2023/05/10 03:01:58;;;;;;;0.77;0.77;;;;;;;;;;6205224;28;20042;-77
2023/05/10 03:05:00;;;;;;;1.10;0.95;;;;;;;;;;6207190;28;20042;-76
2023/05/10 03:08:04;;;;;;;1.00;0.80;;;;;;;;;;6201481;28;20042;-77
2023/05/10 03:11:37;;;;;;;2.25;1.00;;;;;;;;;;6200707;28;20038;-78
2023/05/10 03:15:12;;;;;;;2.00;0.80;;;;;;;;;;6191828;28;20536;-77
2023/05/10 03:18:33;;;;;;;0.80;0.77;;;;;;;;;;6179552;28;20047;-77
2023/05/10 03:21:40;;;;;;;0.77;0.70;;;;;;;;;;6198547;28;20050;-77
2023/05/10 03:24:42;;;;;;;1.95;0.70;;;;;;;;;;6191014;28;20046;-77
2023/05/10 03:27:45;;;;;;;2.23;1.20;;;;;;;;;;6201642;28;20507;-77
2023/05/10 03:30:48;;;;;;;2.42;0.90;;;;;;;;;;6202379;28;20520;-77
2023/05/10 03:33:51;;;;;;;1.80;1.23;;;;;;;;;;6199565;28;20072;-76
2023/05/10 03:36:58;;;;;;;1.35;1.15;;;;;;;;;;6206040;28;20049;-77
2023/05/10 03:40:03;;;;;;;1.52;1.20;;;;;;;;;;6199667;28;20053;-76
2023/05/10 03:43:07;;;;;;;2.25;1.00;;;;;;;;;;6207512;28;20169;-77
2023/05/10 03:46:09;;;;;;;1.23;1.10;;;;;;;;;;6205741;28;20177;-76
2023/05/10 03:49:11;;;;;;;1.88;1.50;;;;;;;;;;6206721;28;20049;-75
2023/05/10 03:52:15;;;;;;;2.65;1.50;;;;;;;;;;6202212;28;20038;-77
2023/05/10 03:55:16;;;;;;;2.08;1.50;;;;;;;;;;6199763;28;20042;-77
2023/05/10 03:58:18;;;;;;;3.83;1.40;;;;;;;;;;6218361;28;20087;-76
2023/05/10 04:01:20;;;;;;;2.50;1.17;;;;;;;;;;6198680;28;20476;-77
2023/05/10 04:04:23;;;;;;;1.65;1.30;;;;;;;;;;6185947;28;20170;-77
2023/05/10 04:07:24;;;;;;;1.73;1.48;;;;;;;;;;6169955;28;20211;-76
2023/05/10 04:10:26;;;;;;;2.17;1.65;;;;;;;;;;6214188;28;20042;-76
2023/05/10 04:13:28;;;;;;;22.15;3.50;;;;;;;;;;6214446;28;20531;-77
2023/05/10 04:16:30;;;;;;;3.33;1.50;;;;;;;;;;6191319;28;20420;-77
2023/05/10 04:19:32;;;;;;;2.25;1.58;;;;;;;;;;6196105;28;20069;-77
2023/05/10 04:22:33;;;;;;;3.30;1.75;;;;;;;;;;6199638;28;20530;-75
2023/05/10 04:25:35;;;;;;;2.83;2.03;;;;;;;;;;6192221;28;21488;-77
2023/05/10 04:28:37;;;;;;;3.33;2.10;;;;;;;;;;6213560;28;20090;-77
2023/05/10 04:31:39;;;;;;;2.78;2.00;;;;;;;;;;6201460;28;20054;-77
2023/05/10 04:34:43;;;;;;;4.05;2.20;;;;;;;;;;6189629;28;20144;-77
2023/05/10 04:37:44;;;;;;;3.60;2.00;;;;;;;;;;6194918;28;20042;-76
2023/05/10 04:40:46;;;;;;;4.88;2.60;;;;;;;;;;6196413;28;20050;-76
2023/05/10 04:43:49;;;;;;;4.82;2.60;;;;;;;;;;6202202;28;20193;-77
2023/05/10 04:46:50;;;;;;;;;;;;;;;;;;6194069;28;20101;-76
2023/05/10 04:49:52;;;;;;;3.35;2.65;;;;;;;;;;6203087;28;19921;-76
2023/05/10 04:52:54;;;;;;;4.63;3.00;;;;;;;;;;6204160;28;20416;-76
2023/05/10 04:55:55;;;;;;;6.90;3.20;;;;;;;;;;6196850;28;20061;-76
2023/05/10 04:58:57;;;;;;;4.68;2.60;;;;;;;;;;6180880;28;20125;-76
2023/05/10 05:01:59;;;;;;;4.05;2.88;;;;;;;;;;6192584;28;20043;-74
2023/05/10 05:05:01;;;;;;;4.53;3.25;;;;;;;;;;6198545;28;20093;-78
2023/05/10 05:08:02;;;;;;;4.97;2.90;;;;;;;;;;6188117;28;20504;-77
2023/05/10 05:11:04;;;;;;;4.28;2.10;;;;;;;;;;6194737;28;20046;-77
2023/05/10 05:14:06;;;;;;;2.80;2.10;;;;;;;;;;6184448;28;20046;-78
2023/05/10 05:17:08;;;;;;;2.80;2.00;;;;;;;;;;6202555;28;20124;-77
2023/05/10 05:20:10;;;;;;;4.18;2.05;;;;;;;;;;6199003;28;20038;-78
2023/05/10 05:23:12;;;;;;;5.80;2.10;;;;;;;;;;6187134;28;20580;-77
2023/05/10 05:26:14;;;;;;;3.40;2.45;;;;;;;;;;6177419;28;20046;-77
2023/05/10 05:29:16;;;;;;;2.65;1.85;;;;;;;;;;6179963;28;20486;-77
2023/05/10 05:32:18;;;;;;;3.53;2.25;;;;;;;;;;6196811;28;20043;-78
2023/05/10 05:35:19;;;;;;;3.53;2.22;;;;;;;;;;6185367;28;20046;-77
2023/05/10 05:38:21;;;;;;;2.55;2.20;;;;;;;;;;6198960;28;20061;-78
2023/05/10 05:41:24;;;;;;;2.35;1.80;;;;;;;;;;6197388;28;20411;-77
2023/05/10 05:44:27;;;;;;;2.30;1.90;;;;;;;;;;6202659;28;20046;-78
2023/05/10 05:47:29;;;;;;;5.60;2.30;;;;;;;;;;6195320;28;20617;-77
2023/05/10 05:50:31;;;;;;;4.18;2.00;;;;;;;;;;6210237;28;20046;-78
2023/05/10 05:53:32;;;;;;;2.17;1.95;;;;;;;;;;6197812;28;20054;-77
2023/05/10 05:56:34;;;;;;;3.35;1.88;;;;;;;;;;6200367;28;20526;-78
2023/05/10 05:59:36;;;;;;;3.92;1.73;;;;;;;;;;6197173;28;20076;-77
2023/05/10 06:02:38;;;;;;;2.95;1.70;;;;;;;;;;6196262;28;20050;-77
2023/05/10 06:05:39;;;;;;;4.10;2.13;;;;;;;;;;6181373;28;20366;-78
2023/05/10 06:08:41;;;;;;;4.80;2.20;;;;;;;;;;6199650;28;20141;-79
2023/05/10 06:11:43;;;;;;;3.65;2.05;;;;;;;;;;6194678;28;20061;-78
2023/05/10 06:14:45;;;;;;;3.50;2.40;;;;;;;;;;6201911;28;20042;-77
2023/05/10 06:17:48;;;;;;;2.40;1.92;;;;;;;;;;6201533;28;20046;-77
2023/05/10 06:20:51;;;;;;;4.82;1.80;;;;;;;;;;6207176;28;20082;-77
2023/05/10 06:23:53;;;;;;;2.60;1.98;;;;;;;;;;6196454;28;20094;-77
2023/05/10 06:26:54;;;;;;;2.42;1.80;;;;;;;;;;6196444;28;20042;-78
2023/05/10 06:29:56;;;;;;;2.83;2.00;;;;;;;;;;6203849;28;20224;-78
2023/05/10 06:33:13;;;;;;;1.13;1.00;;;;;;;;;;6206662;28;20423;-78
2023/05/10 06:36:15;;;;;;;1.63;1.40;;;;;;;;;;6206725;28;20049;-78
2023/05/10 06:39:16;;;;;;;2.22;1.67;;;;;;;;;;6202306;28;20113;-77
2023/05/10 06:42:18;;;;;;;1.67;1.40;;;;;;;;;;6209556;28;20041;-77
2023/05/10 06:45:21;;;;;;;2.55;1.40;;;;;;;;;;6219965;28;20583;-78
2023/05/10 06:48:23;;;;;;;1.50;1.27;;;;;;;;;;6198536;28;20050;-78
2023/05/10 06:51:24;;;;;;;1.30;1.20;;;;;;;;;;6205382;28;20073;-77
2023/05/10 06:54:26;;;;;;;1.85;1.10;;;;;;;;;;6196540;28;20042;-77
2023/05/10 06:57:28;;;;;;;5.72;2.25;;;;;;;;;;6202240;28;20081;-78
2023/05/10 07:00:32;;;;;;;3.22;1.70;;;;;;;;;;6203151;28;20049;-77
2023/05/10 07:03:34;;;;;;;2.15;1.60;;;;;;;;;;6205699;28;20507;-78
2023/05/10 07:06:35;;;;;;;3.70;1.50;;;;;;;;;;6207904;28;20541;-77
2023/05/10 07:09:37;;;;;;;3.72;1.70;;;;;;;;;;6200889;28;20057;-77
2023/05/10 07:12:39;;;;;;;3.10;1.50;;;;;;;;;;6183784;28;20130;-77
2023/05/10 07:15:42;;;;;;;2.72;1.55;;;;;;;;;;6205461;28;20042;-77
2023/05/10 07:18:43;;;;;;;15.38;2.03;;;;;;;;;;6197998;28;20109;-78
2023/05/10 07:21:45;;;;;;;4.85;1.95;;;;;;;;;;6202586;28;20050;-78
2023/05/10 07:24:47;;;;;;;4.68;2.25;;;;;;;;;;6202729;28;20081;-76
2023/05/10 07:27:48;;;;;;;5.53;2.00;;;;;;;;;;6196541;28;20162;-79
2023/05/10 07:30:50;;;;;;;4.72;2.20;;;;;;;;;;6199488;28;20053;-78
2023/05/10 07:33:52;;;;;;;4.57;1.88;;;;;;;;;;6199965;28;20046;-78
2023/05/10 07:36:54;;;;;;;5.55;2.35;;;;;;;;;;6195613;28;20532;-79
2023/05/10 07:39:55;;;;;;;5.10;1.85;;;;;;;;;;6205438;28;20042;-78
2023/05/10 07:42:57;;;;;;;3.83;2.10;;;;;;;;;;6201898;28;20463;-78
2023/05/10 07:45:59;;;;;;;4.65;2.20;;;;;;;;;;6191617;28;20054;-77
2023/05/10 07:49:01;;;;;;;5.68;2.50;;;;;;;;;;6202188;28;20126;-78
2023/05/10 07:52:03;;;;;;;3.75;2.30;;;;;;;;;;6187573;28;20046;-76
2023/05/10 07:55:07;;;;;;;3.87;2.00;;;;;;;;;;6183423;28;20048;-76
2023/05/10 07:58:08;;;;;;;5.93;2.38;;;;;;;;;;6187637;28;20046;-79
2023/05/10 08:01:10;;;;;;;5.50;2.65;;;;;;;;;;6200426;28;20050;-78
2023/05/10 08:04:12;;;;;;;3.42;2.17;;;;;;;;;;6201148;28;21060;-78
2023/05/10 08:07:13;;;;;;;4.28;2.63;;;;;;;;;;6202848;28;20520;-79
2023/05/10 08:10:16;;;;;;;5.13;2.13;;;;;;;;;;6203501;28;20046;-79
2023/05/10 08:13:18;;;;;;;2.78;2.35;;;;;;;;;;6202183;28;20424;-78
2023/05/10 08:16:20;;;;;;;4.10;2.50;;;;;;;;;;6198914;28;20046;-81
2023/05/10 08:19:22;;;;;;;4.63;2.22;;;;;;;;;;6197393;28;20072;-82
2023/05/10 08:22:24;;;;;;;4.97;2.33;;;;;;;;;;6199458;28;20038;-82
2023/05/10 08:25:26;;;;;;;3.50;2.45;;;;;;;;;;6189997;28;20053;-80
2023/05/10 08:28:27;;;;;;;4.68;2.72;;;;;;;;;;6197756;28;20046;-76
2023/05/10 08:31:29;;;;;;;4.15;2.47;;;;;;;;;;6194172;28;20042;-77
2023/05/10 08:34:33;;;;;;;4.43;2.53;;;;;;;;;;6202168;28;20535;-76
2023/05/10 08:37:35;;;;;;;4.53;2.35;;;;;;;;;;6207181;28;20050;-77
2023/05/10 08:40:37;;;;;;;3.47;2.60;;;;;;;;;;6195212;28;20058;-76
2023/05/10 08:43:41;;;;;;;3.83;2.22;;;;;;;;;;6202946;28;20133;-76
2023/05/10 08:46:46;;;;;;;3.65;2.80;;;;;;;;;;6198106;28;20058;-79
2023/05/10 08:49:51;;;;;;;4.65;2.85;;;;;;;;;;6203166;28;20431;-78
2023/05/10 08:52:57;;;;;;;4.80;3.13;;;;;;;;;;6203983;28;20045;-80
2023/05/10 08:55:59;;;;;;;4.40;3.15;;;;;;;;;;6198032;28;20038;-81
2023/05/10 08:59:01;;;;;;;4.95;3.10;;;;;;;;;;6199597;28;20042;-79
2023/05/10 09:02:04;;;;;;;3.83;2.90;;;;;;;;;;6202949;28;20140;-78
2023/05/10 09:05:06;;;;;;;;;;;;;;;;;;6206653;28;20141;-79
2023/05/10 09:08:08;;;;;;;3.40;2.13;;;;;;;;;;6205482;28;19936;-81
2023/05/10 09:11:11;;;;;;;3.47;2.23;;;;;;;;;;6209610;28;20100;-78
2023/05/10 09:14:14;;;;;;;2.40;1.80;;;;;;;;;;6202631;28;21081;-81
2023/05/10 09:17:16;;;;;;;3.25;2.47;;;;;;;;;;6198944;28;20042;-79
2023/05/10 09:20:18;;;;;;;3.42;2.42;;;;;;;;;;6192873;28;20162;-81
2023/05/10 09:23:20;;;;;;;3.53;2.30;;;;;;;;;;6213854;28;20046;-81
2023/05/10 09:26:23;;;;;;;4.10;2.10;;;;;;;;;;6233645;28;20046;-80
2023/05/10 09:29:25;;;;;;;;;;;;;;;;;;6226641;28;20129;-82
2023/05/10 09:32:57;;;;;;;4.10;2.47;;;;;;;;;;6196456;28;20004;-81
2023/05/10 09:36:07;;;;;;;5.50;2.95;;;;;;;;;;6199396;28;20451;-81
2023/05/10 09:39:09;;;;;;;5.63;3.42;;;;;;;;;;6212310;28;20097;-80
2023/05/10 09:42:11;;;;;;;4.75;3.40;;;;;;;;;;6200644;28;20089;-80
2023/05/10 09:45:12;;;;;;;7.30;4.22;;;;;;;;;;6226391;28;20048;-81
2023/05/10 09:48:14;;;;;;;7.85;4.55;;;;;;;;;;6222764;28;20060;-81
2023/05/10 09:51:23;;;;;;;9.43;4.47;;;;;;;;;;6225200;28;20528;-81
2023/05/10 09:54:25;;;;;;;6.22;4.45;;;;;;;;;;6211243;28;20105;-80
2023/05/10 09:57:26;;;;;;;8.43;4.78;;;;;;;;;;6227776;28;20041;-79
2023/05/10 10:00:35;;;;;;;6.00;4.47;;;;;;;;;;6226372;28;20046;-79
2023/05/10 10:03:42;;;;;;;7.82;4.80;;;;;;;;;;6212544;28;20153;-79
2023/05/10 10:06:44;;;;;;;8.88;4.07;;;;;;;;;;6191266;28;20098;-79
2023/05/10 10:09:46;;;;;;;7.20;4.40;;;;;;;;;;6201053;28;20048;-78
2023/05/10 10:12:48;;;;;;;6.85;5.10;;;;;;;;;;6206062;28;20528;-77
2023/05/10 10:15:50;;;;;;;6.00;4.57;;;;;;;;;;6193582;28;20073;-77
2023/05/10 10:18:53;;;;;;;8.27;5.65;;;;;;;;;;6207867;28;20060;-77
2023/05/10 10:21:55;;;;;;;8.50;5.00;;;;;;;;;;6205011;28;20042;-79
2023/05/10 10:24:57;;;;;;;6.22;4.55;;;;;;;;;;6203141;28;20068;-78
2023/05/10 10:28:30;;;;;;;7.23;5.17;;;;;;;;;;6213896;28;20528;-78
2023/05/10 10:31:45;;;;;;;8.43;5.22;;;;;;;;;;6193854;28;20465;-78
2023/05/10 10:34:47;;;;;;;7.22;5.38;;;;;;;;;;6205176;28;20049;-78
2023/05/10 10:37:50;;;;;;;7.32;4.68;;;;;;;;;;6204888;28;20052;-78
2023/05/10 10:41:09;;;;;;;5.78;3.53;;;;;;;;;;6204927;28;20073;-79
2023/05/10 10:44:24;;;;;;;5.18;3.55;;;;;;;;;;6212748;28;20627;-77
2023/05/10 10:47:30;;;;;;;6.55;4.20;;;;;;;;;;6211158;28;20053;-78
2023/05/10 10:50:43;;;;;;;7.88;3.50;;;;;;;;;;6210934;28;20049;-78
2023/05/10 10:53:47;;;;;;;2.83;2.45;;;;;;;;;;6185985;28;20435;-77
2023/05/10 10:57:13;;;;;;;2.92;1.90;;;;;;;;;;6201185;28;20169;-78
2023/05/10 11:00:18;;;;;;;2.70;2.15;;;;;;;;;;6213282;28;20036;-77
2023/05/10 11:03:20;;;;;;;1.85;1.40;;;;;;;;;;6201512;28;20150;-77
2023/05/10 11:06:33;;;;;;;2.30;1.42;;;;;;;;;;6190190;28;20065;-78
2023/05/10 11:09:39;;;;;;;2.30;1.60;;;;;;;;;;6204042;28;20053;-77
2023/05/10 11:13:14;;;;;;;1.30;1.20;;;;;;;;;;6191715;28;20085;-77
2023/05/10 11:16:23;;;;;;;1.77;1.33;;;;;;;;;;6214746;28;20038;-77
2023/05/10 11:19:27;;;;;;;1.50;1.30;;;;;;;;;;6205350;28;20073;-77
2023/05/10 11:22:48;;;;;;;1.52;1.15;;;;;;;;;;6208145;28;20043;-77
2023/05/10 11:25:50;;;;;;;1.42;0.90;;;;;;;;;;6202378;28;20522;-77
2023/05/10 11:28:55;;;;;;;1.40;0.90;;;;;;;;;;6205234;28;20042;-77
2023/05/10 11:31:58;;;;;;;0.93;0.85;;;;;;;;;;6205130;28;20514;-77
2023/05/10 11:35:07;;;;;;;2.30;1.30;;;;;;;;;;6206672;28;20038;-77
2023/05/10 11:38:10;;;;;;;0.80;0.80;;;;;;;;;;6199780;28;20515;-77
2023/05/10 11:41:12;;;;;;;1.20;1.10;;;;;;;;;;6202153;28;20049;-77
2023/05/10 11:44:14;;;;;;;1.10;1.00;;;;;;;;;;6206464;28;20135;-77
2023/05/10 11:47:16;;;;;;;1.58;1.25;;;;;;;;;;6190676;28;20449;-77
2023/05/10 11:50:18;;;;;;;1.40;1.30;;;;;;;;;;6203900;28;20056;-77
2023/05/10 11:53:20;;;;;;;1.55;1.08;;;;;;;;;;6202322;28;20224;-77
2023/05/10 11:56:23;;;;;;;1.17;0.80;;;;;;;;;;6187208;28;20045;-78
2023/05/10 11:59:25;;;;;;;1.63;0.90;;;;;;;;;;6204156;28;20598;-77
2023/05/10 12:02:26;;;;;;;0.68;0.68;;;;;;;;;;6204313;28;20133;-77
2023/05/10 12:05:32;;;;;;;1.88;0.60;;;;;;;;;;6200967;28;20041;-78
2023/05/10 12:08:34;;;;;;;1.58;0.80;;;;;;;;;;6206856;28;20520;-78
2023/05/10 12:11:37;;;;;;;2.90;1.53;;;;;;;;;;6189764;28;20060;-78
2023/05/10 12:14:42;;;;;;;0.60;0.60;;;;;;;;;;6203716;28;20058;-76
2023/05/10 12:17:44;;;;;;;1.85;0.40;;;;;;;;;;6199042;28;20050;-77
2023/05/10 12:20:46;;;;;;;0.30;0.30;;;;;;;;;;6211108;28;20061;-77
2023/05/10 12:23:52;;;;;;;0.20;0.20;;;;;;;;;;6208676;28;20050;-77
2023/05/10 12:26:54;;;;;;;1.85;0.22;;;;;;;;;;6198066;28;20496;-76
2023/05/10 12:29:59;;;;;;;0.28;0.28;;;;;;;;;;6201272;28;20127;-77
2023/05/10 12:33:07;;;;;;;0.85;0.30;;;;;;;;;;6200899;28;20462;-77
2023/05/10 12:36:10;;;;;;;0.40;0.30;;;;;;;;;;6197036;28;20049;-76
2023/05/10 12:39:11;;;;;;;;;;;;;;;;;;6195003;28;20045;-75
2023/05/10 12:42:13;;;;;;;0.30;0.30;;;;;;;;;;6201227;28;19940;-78
2023/05/10 12:45:14;;;;;;;2.70;0.30;;;;;;;;;;6208398;28;20042;-78
2023/05/10 12:48:16;;;;;;;1.02;0.40;;;;;;;;;;6214292;28;20053;-78
2023/05/10 12:51:21;;;;;;;0.40;0.40;;;;;;;;;;6203060;28;20136;-78
2023/05/10 12:54:23;;;;;;;0.65;0.30;;;;;;;;;;6203595;28;20065;-78
2023/05/10 12:57:24;;;;;;;0.30;0.30;;;;;;;;;;6205614;28;20045;-77
2023/05/10 13:00:26;;;;;;;1.55;0.25;;;;;;;;;;6197599;28;20082;-77
2023/05/10 13:03:28;;;;;;;0.30;0.30;;;;;;;;;;6187179;28;20050;-78
2023/05/10 13:06:30;;;;;;;0.32;0.30;;;;;;;;;;6191883;28;20049;-78
2023/05/10 13:09:32;;;;;;;0.37;0.30;;;;;;;;;;6201541;28;21283;-78
2023/05/10 13:12:33;;;;;;;0.40;0.40;;;;;;;;;;6185115;28;20057;-78
2023/05/10 13:15:35;;;;;;;0.38;0.35;;;;;;;;;;6194274;28;20526;-79
2023/05/10 13:18:37;;;;;;;0.40;0.40;;;;;;;;;;6206875;28;20042;-80
2023/05/10 13:21:40;;;;;;;0.40;0.40;;;;;;;;;;6202312;28;20050;-77
2023/05/10 13:24:42;;;;;;;0.50;0.50;;;;;;;;;;6199208;28;20050;-78
2023/05/10 13:27:43;;;;;;;0.40;0.40;;;;;;;;;;6201950;28;20058;-79
2023/05/10 13:30:45;;;;;;;0.68;0.50;;;;;;;;;;6179185;28;20046;-78
2023/05/10 13:33:47;;;;;;;0.60;0.60;;;;;;;;;;6211382;28;20045;-79
2023/05/10 13:36:48;;;;;;;0.55;0.55;;;;;;;;;;6212484;28;20042;-79
2023/05/10 13:39:50;;;;;;;2.58;1.00;;;;;;;;;;6213936;28;20420;-79
2023/05/10 13:42:52;;;;;;;1.08;0.80;;;;;;;;;;6214805;28;20046;-79
2023/05/10 13:45:54;;;;;;;1.27;0.95;;;;;;;;;;6203795;28;20048;-80
2023/05/10 13:48:56;;;;;;;0.90;0.70;;;;;;;;;;6207450;28;20042;-79
2023/05/10 13:51:58;;;;;;;2.53;0.70;;;;;;;;;;6208528;28;20042;-78
2023/05/10 13:55:00;;;;;;;2.75;0.90;;;;;;;;;;6202267;28;20449;-78
2023/05/10 13:58:02;;;;;;;0.95;0.90;;;;;;;;;;6214485;28;20042;-79
2023/05/10 14:01:04;;;;;;;1.27;0.90;;;;;;;;;;6192710;28;20046;-78
2023/05/10 14:04:09;;;;;;;;;;;;;;;;;;6203214;28;20073;-78
2023/05/10 14:07:12;;;;;;;1.17;0.80;;;;;;;;;;6207983;28;19935;-78
2023/05/10 14:10:14;;;;;;;1.70;0.77;;;;;;;;;;6219985;28;20046;-78
2023/05/10 14:13:16;;;;;;;3.03;1.02;;;;;;;;;;6210910;28;20083;-79
2023/05/10 14:16:17;;;;;;;0.82;0.70;;;;;;;;;;6202917;28;20050;-78
2023/05/10 14:19:19;;;;;;;0.70;0.70;;;;;;;;;;6202468;28;20041;-75
2023/05/10 14:22:22;;;;;;;1.55;0.80;;;;;;;;;;6200931;28;20099;-76
2023/05/10 14:25:24;;;;;;;1.60;1.10;;;;;;;;;;6211658;28;20460;-76
2023/05/10 14:28:26;;;;;;;1.10;0.90;;;;;;;;;;6199236;28;20053;-77
2023/05/10 14:31:29;;;;;;;2.95;1.50;;;;;;;;;;6181509;28;20046;-79
2023/05/10 14:34:32;;;;;;;3.03;2.15;;;;;;;;;;6209472;28;20042;-77
2023/05/10 14:37:34;;;;;;;3.73;2.27;;;;;;;;;;6202190;28;20050;-77
2023/05/10 14:40:35;;;;;;;3.90;2.60;;;;;;;;;;6211941;28;20076;-78
2023/05/10 14:43:37;;;;;;;5.97;3.20;;;;;;;;;;6205908;28;20045;-78
2023/05/10 14:46:39;;;;;;;4.57;2.80;;;;;;;;;;6199322;28;20046;-77
2023/05/10 14:49:41;;;;;;;5.75;3.30;;;;;;;;;;6195961;28;20042;-78
2023/05/10 14:52:43;;;;;;;5.97;2.90;;;;;;;;;;6202766;28;20499;-78
2023/05/10 14:55:44;;;;;;;4.05;2.63;;;;;;;;;;6202608;28;20053;-78
2023/05/10 14:58:46;;;;;;;4.30;2.80;;;;;;;;;;6203919;28;20049;-78
2023/05/10 15:01:47;;;;;;;3.58;2.67;;;;;;;;;;6202894;28;20073;-77
2023/05/10 15:04:50;;;;;;;3.40;2.92;;;;;;;;;;6183237;28;20081;-79
2023/05/10 15:07:52;;;;;;;8.65;3.10;;;;;;;;;;6197423;28;20240;-79
2023/05/10 15:10:55;;;;;;;5.78;2.70;;;;;;;;;;6194689;28;20042;-78
2023/05/10 15:13:57;;;;;;;;;;;;;;;;;;6201463;28;20054;-79
2023/05/10 15:16:59;;;;;;;10.90;5.47;;;;;;;;;;6200464;28;20395;-78
2023/05/10 15:20:03;;;;;;;8.38;4.10;;;;;;;;;;6197242;28;20037;-78
2023/05/10 15:23:05;;;;;;;4.40;3.05;;;;;;;;;;6204592;28;20050;-78
2023/05/10 15:26:06;;;;;;;3.03;2.22;;;;;;;;;;6203233;28;20514;-78
2023/05/10 15:29:08;;;;;;;3.92;2.95;;;;;;;;;;6201520;28;20042;-76
2023/05/10 15:32:10;;;;;;;5.20;2.40;;;;;;;;;;6202151;28;20049;-78
2023/05/10 15:35:11;;;;;;;2.45;2.00;;;;;;;;;;6195739;28;20046;-78
2023/05/10 15:38:13;;;;;;;3.95;1.75;;;;;;;;;;6204087;28;20052;-77
2023/05/10 15:41:15;;;;;;;2.30;1.90;;;;;;;;;;6198744;28;20129;-77
2023/05/10 15:44:16;;;;;;;3.13;2.30;;;;;;;;;;6203758;28;20643;-79
2023/05/10 15:47:18;;;;;;;3.67;2.47;;;;;;;;;;6215276;28;20041;-78
2023/05/10 15:50:20;;;;;;;4.30;2.75;;;;;;;;;;6210224;28;20053;-79
2023/05/10 15:53:21;;;;;;;5.82;3.45;;;;;;;;;;6210456;28;20107;-79
2023/05/10 15:56:23;;;;;;;6.15;3.20;;;;;;;;;;6199002;28;20051;-79
2023/05/10 15:59:24;;;;;;;6.70;3.83;;;;;;;;;;6207167;28;20042;-77
2023/05/10 16:02:26;;;;;;;3.90;2.80;;;;;;;;;;6200574;28;20041;-78
2023/05/10 16:05:31;;;;;;;3.92;2.33;;;;;;;;;;6202796;28;20554;-77
2023/05/10 16:08:33;;;;;;;3.05;2.28;;;;;;;;;;6196119;28;20038;-78
2023/05/10 16:11:34;;;;;;;3.55;2.22;;;;;;;;;;6182002;28;20050;-79
2023/05/10 16:14:36;;;;;;;10.50;2.72;;;;;;;;;;6203481;28;20062;-77
2023/05/10 16:17:37;;;;;;;3.50;2.65;;;;;;;;;;6200670;28;20132;-79
2023/05/10 16:20:39;;;;;;;5.65;3.03;;;;;;;;;;6199722;28;20051;-78
2023/05/10 16:23:42;;;;;;;4.28;3.13;;;;;;;;;;6206448;28;20491;-78
2023/05/10 16:26:43;;;;;;;3.60;2.33;;;;;;;;;;6201348;28;20416;-78
2023/05/10 16:29:47;;;;;;;3.65;2.50;;;;;;;;;;6206405;28;20042;-78
2023/05/10 16:32:49;;;;;;;3.53;2.50;;;;;;;;;;6186186;28;20481;-78
2023/05/10 16:35:50;;;;;;;4.20;2.90;;;;;;;;;;6199315;28;20043;-79
2023/05/10 16:38:52;;;;;;;3.58;2.60;;;;;;;;;;6202749;28;20464;-79
2023/05/10 16:41:53;;;;;;;3.33;2.22;;;;;;;;;;6213242;28;20052;-79
2023/05/10 16:44:55;;;;;;;2.75;2.28;;;;;;;;;;6209417;28;20054;-78
2023/05/10 16:47:57;;;;;;;3.90;2.60;;;;;;;;;;6190178;28;20564;-79
2023/05/10 16:50:58;;;;;;;3.95;2.60;;;;;;;;;;6207644;28;20047;-77
2023/05/10 16:54:00;;;;;;;4.22;2.40;;;;;;;;;;6203846;28;20042;-77
2023/05/10 16:57:02;;;;;;;2.72;2.03;;;;;;;;;;6187431;28;20053;-76
2023/05/10 17:00:04;;;;;;;4.45;2.25;;;;;;;;;;6202072;28;20049;-79
2023/05/10 17:03:06;;;;;;;3.37;2.50;;;;;;;;;;6207379;28;20062;-78
2023/05/10 17:06:08;;;;;;;3.13;2.22;;;;;;;;;;6211355;28;20128;-79
2023/05/10 17:09:10;;;;;;;2.90;2.20;;;;;;;;;;6205842;28;20041;-78
2023/05/10 17:12:12;;;;;;;3.33;2.40;;;;;;;;;;6206720;28;20041;-78
2023/05/10 17:15:15;;;;;;;3.83;2.10;;;;;;;;;;6203747;28;20049;-78
2023/05/10 17:18:18;;;;;;;2.97;2.30;;;;;;;;;;6198920;28;20050;-77
2023/05/10 17:21:20;;;;;;;3.50;2.25;;;;;;;;;;6185525;28;20586;-77
2023/05/10 17:24:21;;;;;;;2.70;2.40;;;;;;;;;;6207725;28;20046;-78
2023/05/10 17:27:23;;;;;;;4.10;2.35;;;;;;;;;;6208413;28;20061;-77
2023/05/10 17:30:27;;;;;;;5.75;2.17;;;;;;;;;;6205242;28;20065;-78
2023/05/10 17:33:29;;;;;;;4.95;2.95;;;;;;;;;;6200340;28;20038;-77
2023/05/10 17:36:31;;;;;;;4.55;2.95;;;;;;;;;;6194405;28;20042;-79
2023/05/10 17:39:33;;;;;;;3.30;2.73;;;;;;;;;;6210258;28;20044;-77
2023/05/10 17:42:34;;;;;;;4.40;2.92;;;;;;;;;;6196755;28;20127;-78
2023/05/10 17:45:36;;;;;;;3.72;3.10;;;;;;;;;;6204971;28;20448;-79
2023/05/10 17:48:37;;;;;;;5.22;3.03;;;;;;;;;;6203278;28;20054;-79
2023/05/10 17:51:42;;;;;;;4.22;3.08;;;;;;;;;;6209106;28;20528;-77
2023/05/10 17:54:44;;;;;;;5.72;3.38;;;;;;;;;;6188642;28;20057;-77
2023/05/10 17:57:46;;;;;;;3.55;2.88;;;;;;;;;;6188915;28;20053;-78
2023/05/10 18:00:51;;;;;;;3.70;2.50;;;;;;;;;;6193571;28;20550;-77
2023/05/10 18:03:53;;;;;;;3.22;2.25;;;;;;;;;;6184828;28;20185;-78
2023/05/10 18:06:59;;;;;;;4.43;2.65;;;;;;;;;;6202545;28;20041;-79
2023/05/10 18:10:01;;;;;;;4.63;2.22;;;;;;;;;;6213503;28;20057;-78
2023/05/10 18:13:03;;;;;;;3.15;2.60;;;;;;;;;;6203521;28;20049;-79
2023/05/10 18:16:11;;;;;;;4.07;2.40;;;;;;;;;;6208186;28;20130;-77
2023/05/10 18:19:13;;;;;;;4.75;2.53;;;;;;;;;;6211073;28;20045;-78
2023/05/10 18:22:15;;;;;;;7.75;3.42;;;;;;;;;;6210349;28;20061;-78
2023/05/10 18:25:18;;;;;;;4.22;2.63;;;;;;;;;;6217449;28;20046;-77